sensor_id;sensor_type;location;lat;lon;timestamp;temperature;humidity
2459;DHT22;1241;50.920;6.936;2023-02-15T00:01:35;2.90;99.90
2459;DHT22;1241;50.920;6.936;2023-02-15T00:04:02;2.90;99.90
2459;DHT22;1241;50.920;6.936;2023-02-15T00:06:28;2.80;99.90
2459;DHT22;1241;50.920;6.936;2023-02-15T00:08:54;2.80;99.90
2459;DHT22;1241;50.920;6.936;2023-02-15T00:11:21;2.70;99.90
2459;DHT22;1241;50.920;6.936;2023-02-15T00:14:18;2.70;99.90
2459;DHT22;1241;50.920;6.936;2023-02-15T00:16:44;2.70;99.90
2459;DHT22;1241;50.920;6.936;2023-02-15T00:19:11;2.70;99.90
2459;DHT22;1241;50.920;6.936;2023-02-15T00:21:38;2.70;99.90
2459;DHT22;1241;50.920;6.936;2023-02-15T00:24:06;2.70;99.90
2459;DHT22;1241;50.920;6.936;2023-02-15T00:26:33;2.70;99.90
2459;DHT22;1241;50.920;6.936;2023-02-15T00:29:00;2.70;99.90
2459;DHT22;1241;50.920;6.936;2023-02-15T00:31:29;2.70;99.90
2459;DHT22;1241;50.920;6.936;2023-02-15T00:34:22;2.60;99.90
2459;DHT22;1241;50.920;6.936;2023-02-15T00:36:46;2.60;99.90
2459;DHT22;1241;50.920;6.936;2023-02-15T00:39:14;2.60;99.90
2459;DHT22;1241;50.920;6.936;2023-02-15T00:41:40;2.70;99.90
2459;DHT22;1241;50.920;6.936;2023-02-15T00:44:07;2.60;99.90
2459;DHT22;1241;50.920;6.936;2023-02-15T00:46:33;2.60;99.90
2459;DHT22;1241;50.920;6.936;2023-02-15T00:48:59;2.50;99.90
2459;DHT22;1241;50.920;6.936;2023-02-15T00:51:25;2.50;99.90
2459;DHT22;1241;50.920;6.936;2023-02-15T00:53:52;2.50;99.90
2459;DHT22;1241;50.920;6.936;2023-02-15T00:56:18;2.50;99.90
2459;DHT22;1241;50.920;6.936;2023-02-15T00:58:44;2.40;99.90
2459;DHT22;1241;50.920;6.936;2023-02-15T01:01:16;2.40;99.90
2459;DHT22;1241;50.920;6.936;2023-02-15T01:03:44;2.40;99.90
2459;DHT22;1241;50.920;6.936;2023-02-15T01:06:11;2.40;99.90
2459;DHT22;1241;50.920;6.936;2023-02-15T01:08:37;2.40;99.90
2459;DHT22;1241;50.920;6.936;2023-02-15T01:11:08;2.40;99.90
2459;DHT22;1241;50.920;6.936;2023-02-15T01:13:35;2.40;99.90
2459;DHT22;1241;50.920;6.936;2023-02-15T01:16:01;2.40;99.90
2459;DHT22;1241;50.920;6.936;2023-02-15T01:18:27;2.30;99.90
2459;DHT22;1241;50.920;6.936;2023-02-15T01:20:53;2.30;99.90
2459;DHT22;1241;50.920;6.936;2023-02-15T01:23:19;2.30;99.90
2459;DHT22;1241;50.920;6.936;2023-02-15T01:25:45;2.30;99.90
2459;DHT22;1241;50.920;6.936;2023-02-15T01:28:11;2.30;99.90
2459;DHT22;1241;50.920;6.936;2023-02-15T01:30:38;2.30;99.90
2459;DHT22;1241;50.920;6.936;2023-02-15T01:33:04;2.30;99.90
2459;DHT22;1241;50.920;6.936;2023-02-15T01:35:31;2.30;99.90
2459;DHT22;1241;50.920;6.936;2023-02-15T01:37:56;2.30;99.90
2459;DHT22;1241;50.920;6.936;2023-02-15T01:40:23;2.30;99.90
2459;DHT22;1241;50.920;6.936;2023-02-15T01:42:52;2.30;99.90
2459;DHT22;1241;50.920;6.936;2023-02-15T01:45:20;2.30;99.90
2459;DHT22;1241;50.920;6.936;2023-02-15T01:48:15;2.30;99.90
2459;DHT22;1241;50.920;6.936;2023-02-15T01:50:46;2.30;99.90
2459;DHT22;1241;50.920;6.936;2023-02-15T01:53:31;2.30;99.90
2459;DHT22;1241;50.920;6.936;2023-02-15T01:56:05;2.30;99.90
2459;DHT22;1241;50.920;6.936;2023-02-15T01:58:32;2.30;99.90
2459;DHT22;1241;50.920;6.936;2023-02-15T02:01:00;2.20;99.90
2459;DHT22;1241;50.920;6.936;2023-02-15T02:06:10;2.10;99.90
2459;DHT22;1241;50.920;6.936;2023-02-15T02:08:40;2.10;99.90
2459;DHT22;1241;50.920;6.936;2023-02-15T02:11:13;2.20;99.90
2459;DHT22;1241;50.920;6.936;2023-02-15T02:13:40;2.10;99.90
2459;DHT22;1241;50.920;6.936;2023-02-15T02:16:38;2.00;99.90
2459;DHT22;1241;50.920;6.936;2023-02-15T02:19:41;2.00;99.90
2459;DHT22;1241;50.920;6.936;2023-02-15T02:23:09;1.80;99.90
2459;DHT22;1241;50.920;6.936;2023-02-15T02:31:39;2.00;99.90
2459;DHT22;1241;50.920;6.936;2023-02-15T02:36:57;1.90;99.90
2459;DHT22;1241;50.920;6.936;2023-02-15T02:39:27;1.90;99.90
2459;DHT22;1241;50.920;6.936;2023-02-15T02:42:18;1.80;99.90
2459;DHT22;1241;50.920;6.936;2023-02-15T02:45:00;1.80;99.90
2459;DHT22;1241;50.920;6.936;2023-02-15T02:50:22;1.80;99.90
2459;DHT22;1241;50.920;6.936;2023-02-15T02:52:51;1.80;99.90
2459;DHT22;1241;50.920;6.936;2023-02-15T02:55:44;1.80;99.90
2459;DHT22;1241;50.920;6.936;2023-02-15T02:58:31;1.80;99.90
2459;DHT22;1241;50.920;6.936;2023-02-15T03:01:06;1.70;99.90
2459;DHT22;1241;50.920;6.936;2023-02-15T03:03:50;1.70;99.90
2459;DHT22;1241;50.920;6.936;2023-02-15T03:09:12;1.70;99.90
2459;DHT22;1241;50.920;6.936;2023-02-15T03:11:47;1.70;99.90
2459;DHT22;1241;50.920;6.936;2023-02-15T03:14:16;1.70;99.90
2459;DHT22;1241;50.920;6.936;2023-02-15T03:16:46;1.60;99.90
2459;DHT22;1241;50.920;6.936;2023-02-15T03:19:20;1.60;99.90
2459;DHT22;1241;50.920;6.936;2023-02-15T03:21:53;1.50;99.90
2459;DHT22;1241;50.920;6.936;2023-02-15T03:24:43;1.60;99.90
2459;DHT22;1241;50.920;6.936;2023-02-15T03:27:19;1.60;99.90
2459;DHT22;1241;50.920;6.936;2023-02-15T03:29:55;1.60;99.90
2459;DHT22;1241;50.920;6.936;2023-02-15T03:32:24;1.60;99.90
2459;DHT22;1241;50.920;6.936;2023-02-15T03:34:51;1.60;99.90
2459;DHT22;1241;50.920;6.936;2023-02-15T03:37:30;1.60;99.90
2459;DHT22;1241;50.920;6.936;2023-02-15T03:43:14;1.50;99.90
2459;DHT22;1241;50.920;6.936;2023-02-15T03:45:44;1.50;99.90
2459;DHT22;1241;50.920;6.936;2023-02-15T03:48:30;1.50;99.90
2459;DHT22;1241;50.920;6.936;2023-02-15T03:51:02;1.50;99.90
2459;DHT22;1241;50.920;6.936;2023-02-15T03:53:48;1.40;99.90
2459;DHT22;1241;50.920;6.936;2023-02-15T03:56:14;1.40;99.90
2459;DHT22;1241;50.920;6.936;2023-02-15T03:58:40;1.40;99.90
2459;DHT22;1241;50.920;6.936;2023-02-15T04:04:20;1.50;99.90
2459;DHT22;1241;50.920;6.936;2023-02-15T04:06:46;1.50;99.90
2459;DHT22;1241;50.920;6.936;2023-02-15T04:09:12;1.50;99.90
2459;DHT22;1241;50.920;6.936;2023-02-15T04:11:57;1.50;99.90
2459;DHT22;1241;50.920;6.936;2023-02-15T04:14:22;1.40;99.90
2459;DHT22;1241;50.920;6.936;2023-02-15T04:17:08;1.50;99.90
2459;DHT22;1241;50.920;6.936;2023-02-15T04:19:34;1.50;99.90
2459;DHT22;1241;50.920;6.936;2023-02-15T04:22:18;1.50;99.90
2459;DHT22;1241;50.920;6.936;2023-02-15T04:25:03;1.40;99.90
2459;DHT22;1241;50.920;6.936;2023-02-15T04:27:35;1.40;99.90
2459;DHT22;1241;50.920;6.936;2023-02-15T04:30:01;1.40;99.90
2459;DHT22;1241;50.920;6.936;2023-02-15T04:32:26;1.40;99.90
2459;DHT22;1241;50.920;6.936;2023-02-15T04:34:53;1.40;99.90
2459;DHT22;1241;50.920;6.936;2023-02-15T04:37:19;1.40;99.90
2459;DHT22;1241;50.920;6.936;2023-02-15T04:39:44;1.40;99.90
2459;DHT22;1241;50.920;6.936;2023-02-15T04:42:10;1.40;99.90
2459;DHT22;1241;50.920;6.936;2023-02-15T04:44:36;1.40;99.90
2459;DHT22;1241;50.920;6.936;2023-02-15T04:47:01;1.40;99.90
2459;DHT22;1241;50.920;6.936;2023-02-15T04:49:27;1.40;99.90
2459;DHT22;1241;50.920;6.936;2023-02-15T04:51:53;1.40;99.90
2459;DHT22;1241;50.920;6.936;2023-02-15T04:54:18;1.40;99.90
2459;DHT22;1241;50.920;6.936;2023-02-15T04:56:44;1.40;99.90
2459;DHT22;1241;50.920;6.936;2023-02-15T04:59:10;1.40;99.90
2459;DHT22;1241;50.920;6.936;2023-02-15T05:01:36;1.30;99.90
2459;DHT22;1241;50.920;6.936;2023-02-15T05:04:03;1.30;99.90
2459;DHT22;1241;50.920;6.936;2023-02-15T05:06:29;1.30;99.90
2459;DHT22;1241;50.920;6.936;2023-02-15T05:08:55;1.40;99.90
2459;DHT22;1241;50.920;6.936;2023-02-15T05:11:20;1.40;99.90
2459;DHT22;1241;50.920;6.936;2023-02-15T05:13:46;1.40;99.90
2459;DHT22;1241;50.920;6.936;2023-02-15T05:16:12;1.40;99.90
2459;DHT22;1241;50.920;6.936;2023-02-15T05:18:38;1.40;99.90
2459;DHT22;1241;50.920;6.936;2023-02-15T05:21:03;1.40;99.90
2459;DHT22;1241;50.920;6.936;2023-02-15T05:23:29;1.40;99.90
2459;DHT22;1241;50.920;6.936;2023-02-15T05:25:55;1.50;99.90
2459;DHT22;1241;50.920;6.936;2023-02-15T05:28:39;1.50;99.90
2459;DHT22;1241;50.920;6.936;2023-02-15T05:31:13;1.50;99.90
2459;DHT22;1241;50.920;6.936;2023-02-15T05:33:40;1.40;99.90
2459;DHT22;1241;50.920;6.936;2023-02-15T05:36:06;1.40;99.90
2459;DHT22;1241;50.920;6.936;2023-02-15T05:38:34;1.40;99.90
2459;DHT22;1241;50.920;6.936;2023-02-15T05:41:02;1.30;99.90
2459;DHT22;1241;50.920;6.936;2023-02-15T05:43:28;1.30;99.90
2459;DHT22;1241;50.920;6.936;2023-02-15T05:45:54;1.30;99.90
2459;DHT22;1241;50.920;6.936;2023-02-15T05:48:22;1.30;99.90
2459;DHT22;1241;50.920;6.936;2023-02-15T05:51:00;1.20;99.90
2459;DHT22;1241;50.920;6.936;2023-02-15T05:53:29;1.20;99.90
2459;DHT22;1241;50.920;6.936;2023-02-15T05:55:55;1.20;99.90
2459;DHT22;1241;50.920;6.936;2023-02-15T05:58:26;1.20;99.90
2459;DHT22;1241;50.920;6.936;2023-02-15T06:00:52;1.20;99.90
2459;DHT22;1241;50.920;6.936;2023-02-15T06:03:18;1.20;99.90
2459;DHT22;1241;50.920;6.936;2023-02-15T06:05:44;1.20;99.90
2459;DHT22;1241;50.920;6.936;2023-02-15T06:08:10;1.10;99.90
2459;DHT22;1241;50.920;6.936;2023-02-15T06:10:35;1.10;99.90
2459;DHT22;1241;50.920;6.936;2023-02-15T06:13:01;1.10;99.90
2459;DHT22;1241;50.920;6.936;2023-02-15T06:15:27;1.10;99.90
2459;DHT22;1241;50.920;6.936;2023-02-15T06:17:52;1.10;99.90
2459;DHT22;1241;50.920;6.936;2023-02-15T06:20:18;1.10;99.90
2459;DHT22;1241;50.920;6.936;2023-02-15T06:22:44;1.00;99.90
2459;DHT22;1241;50.920;6.936;2023-02-15T06:25:09;1.00;99.90
2459;DHT22;1241;50.920;6.936;2023-02-15T06:27:37;1.00;99.90
2459;DHT22;1241;50.920;6.936;2023-02-15T06:30:07;1.00;99.90
2459;DHT22;1241;50.920;6.936;2023-02-15T06:32:32;1.00;99.90
2459;DHT22;1241;50.920;6.936;2023-02-15T06:34:58;1.00;99.90
2459;DHT22;1241;50.920;6.936;2023-02-15T06:37:24;1.00;99.90
2459;DHT22;1241;50.920;6.936;2023-02-15T06:39:49;1.00;99.90
2459;DHT22;1241;50.920;6.936;2023-02-15T06:42:15;1.00;99.90
2459;DHT22;1241;50.920;6.936;2023-02-15T06:44:43;1.00;99.90
2459;DHT22;1241;50.920;6.936;2023-02-15T06:47:09;1.00;99.90
2459;DHT22;1241;50.920;6.936;2023-02-15T06:49:36;1.00;99.90
2459;DHT22;1241;50.920;6.936;2023-02-15T06:52:01;0.90;99.90
2459;DHT22;1241;50.920;6.936;2023-02-15T06:54:27;0.90;99.90
2459;DHT22;1241;50.920;6.936;2023-02-15T06:56:53;1.00;99.90
2459;DHT22;1241;50.920;6.936;2023-02-15T06:59:19;1.00;99.90
2459;DHT22;1241;50.920;6.936;2023-02-15T07:01:44;1.10;99.90
2459;DHT22;1241;50.920;6.936;2023-02-15T07:04:10;1.10;99.90
2459;DHT22;1241;50.920;6.936;2023-02-15T07:06:36;1.10;99.90
2459;DHT22;1241;50.920;6.936;2023-02-15T07:09:01;1.10;99.90
2459;DHT22;1241;50.920;6.936;2023-02-15T07:11:27;1.10;99.90
2459;DHT22;1241;50.920;6.936;2023-02-15T07:14:11;1.20;99.90
2459;DHT22;1241;50.920;6.936;2023-02-15T07:16:38;1.20;99.90
2459;DHT22;1241;50.920;6.936;2023-02-15T07:19:03;1.20;99.90
2459;DHT22;1241;50.920;6.936;2023-02-15T07:21:29;1.20;99.90
2459;DHT22;1241;50.920;6.936;2023-02-15T07:23:58;1.30;99.90
2459;DHT22;1241;50.920;6.936;2023-02-15T07:26:24;1.40;99.90
2459;DHT22;1241;50.920;6.936;2023-02-15T07:28:50;1.40;99.90
2459;DHT22;1241;50.920;6.936;2023-02-15T07:31:16;1.30;99.90
2459;DHT22;1241;50.920;6.936;2023-02-15T07:33:41;1.40;99.90
2459;DHT22;1241;50.920;6.936;2023-02-15T07:36:08;1.40;99.90
2459;DHT22;1241;50.920;6.936;2023-02-15T07:38:38;1.50;99.90
2459;DHT22;1241;50.920;6.936;2023-02-15T07:41:07;1.60;99.90
2459;DHT22;1241;50.920;6.936;2023-02-15T07:43:35;1.60;99.90
2459;DHT22;1241;50.920;6.936;2023-02-15T07:46:03;1.80;99.90
2459;DHT22;1241;50.920;6.936;2023-02-15T07:48:29;1.80;99.90
2459;DHT22;1241;50.920;6.936;2023-02-15T07:50:59;1.80;99.90
2459;DHT22;1241;50.920;6.936;2023-02-15T07:53:25;1.80;99.90
2459;DHT22;1241;50.920;6.936;2023-02-15T07:55:51;1.80;99.90
2459;DHT22;1241;50.920;6.936;2023-02-15T07:58:18;1.80;99.90
2459;DHT22;1241;50.920;6.936;2023-02-15T08:00:43;1.90;99.90
2459;DHT22;1241;50.920;6.936;2023-02-15T08:03:25;1.90;99.90
2459;DHT22;1241;50.920;6.936;2023-02-15T08:05:56;2.00;99.90
2459;DHT22;1241;50.920;6.936;2023-02-15T08:08:23;2.10;99.90
2459;DHT22;1241;50.920;6.936;2023-02-15T08:13:46;2.20;99.90
2459;DHT22;1241;50.920;6.936;2023-02-15T08:16:40;2.30;99.90
2459;DHT22;1241;50.920;6.936;2023-02-15T08:19:07;2.30;99.90
2459;DHT22;1241;50.920;6.936;2023-02-15T08:21:34;2.40;99.90
2459;DHT22;1241;50.920;6.936;2023-02-15T08:24:01;2.40;99.90
2459;DHT22;1241;50.920;6.936;2023-02-15T08:26:28;2.50;99.90
2459;DHT22;1241;50.920;6.936;2023-02-15T08:28:54;2.60;99.90
2459;DHT22;1241;50.920;6.936;2023-02-15T08:31:20;2.70;99.90
2459;DHT22;1241;50.920;6.936;2023-02-15T08:33:47;2.80;99.90
2459;DHT22;1241;50.920;6.936;2023-02-15T08:36:15;2.80;99.90
2459;DHT22;1241;50.920;6.936;2023-02-15T08:38:42;2.90;99.90
2459;DHT22;1241;50.920;6.936;2023-02-15T08:41:16;2.90;99.90
2459;DHT22;1241;50.920;6.936;2023-02-15T08:43:45;3.00;99.90
2459;DHT22;1241;50.920;6.936;2023-02-15T08:46:13;3.10;99.90
2459;DHT22;1241;50.920;6.936;2023-02-15T08:48:39;3.20;99.90
2459;DHT22;1241;50.920;6.936;2023-02-15T08:51:11;3.20;99.90
2459;DHT22;1241;50.920;6.936;2023-02-15T08:53:38;3.30;99.90
2459;DHT22;1241;50.920;6.936;2023-02-15T08:56:04;3.40;99.90
2459;DHT22;1241;50.920;6.936;2023-02-15T08:58:30;3.60;99.90
2459;DHT22;1241;50.920;6.936;2023-02-15T09:00:57;3.60;99.90
2459;DHT22;1241;50.920;6.936;2023-02-15T09:03:23;3.60;99.90
2459;DHT22;1241;50.920;6.936;2023-02-15T09:05:49;3.70;99.90
2459;DHT22;1241;50.920;6.936;2023-02-15T09:08:15;3.70;99.90
2459;DHT22;1241;50.920;6.936;2023-02-15T09:10:40;3.80;99.90
2459;DHT22;1241;50.920;6.936;2023-02-15T09:13:07;3.90;99.90
2459;DHT22;1241;50.920;6.936;2023-02-15T09:15:33;4.00;99.90
2459;DHT22;1241;50.920;6.936;2023-02-15T09:17:58;4.10;99.90
2459;DHT22;1241;50.920;6.936;2023-02-15T09:20:27;4.10;99.90
2459;DHT22;1241;50.920;6.936;2023-02-15T09:22:53;4.10;99.90
2459;DHT22;1241;50.920;6.936;2023-02-15T09:25:20;4.20;99.90
2459;DHT22;1241;50.920;6.936;2023-02-15T09:27:46;4.30;99.90
2459;DHT22;1241;50.920;6.936;2023-02-15T09:30:12;4.40;99.90
2459;DHT22;1241;50.920;6.936;2023-02-15T09:32:37;4.50;99.90
2459;DHT22;1241;50.920;6.936;2023-02-15T09:35:03;4.60;99.90
2459;DHT22;1241;50.920;6.936;2023-02-15T09:37:32;4.70;99.90
2459;DHT22;1241;50.920;6.936;2023-02-15T09:39:58;4.70;99.90
2459;DHT22;1241;50.920;6.936;2023-02-15T09:42:53;4.90;99.90
2459;DHT22;1241;50.920;6.936;2023-02-15T09:45:50;4.90;99.90
2459;DHT22;1241;50.920;6.936;2023-02-15T09:48:42;5.10;99.90
2459;DHT22;1241;50.920;6.936;2023-02-15T09:54:50;5.30;99.90
2459;DHT22;1241;50.920;6.936;2023-02-15T09:57:21;5.40;99.90
2459;DHT22;1241;50.920;6.936;2023-02-15T10:00:17;5.50;99.90
2459;DHT22;1241;50.920;6.936;2023-02-15T10:11:17;6.00;99.90
2459;DHT22;1241;50.920;6.936;2023-02-15T10:17:15;6.00;99.90
2459;DHT22;1241;50.920;6.936;2023-02-15T10:20:00;6.10;99.90
2459;DHT22;1241;50.920;6.936;2023-02-15T10:28:06;6.30;99.90
2459;DHT22;1241;50.920;6.936;2023-02-15T10:31:03;6.40;99.90
2459;DHT22;1241;50.920;6.936;2023-02-15T10:33:39;6.50;99.90
2459;DHT22;1241;50.920;6.936;2023-02-15T10:39:28;6.70;99.90
2459;DHT22;1241;50.920;6.936;2023-02-15T10:45:03;6.80;99.90
2459;DHT22;1241;50.920;6.936;2023-02-15T10:48:01;7.00;99.90
2459;DHT22;1241;50.920;6.936;2023-02-15T11:01:40;7.50;99.90
2459;DHT22;1241;50.920;6.936;2023-02-15T11:06:54;7.60;99.90
2459;DHT22;1241;50.920;6.936;2023-02-15T11:09:22;7.70;99.90
2459;DHT22;1241;50.920;6.936;2023-02-15T11:11:52;7.70;99.90
2459;DHT22;1241;50.920;6.936;2023-02-15T11:14:49;7.80;99.90
2459;DHT22;1241;50.920;6.936;2023-02-15T11:17:30;7.90;99.90
2459;DHT22;1241;50.920;6.936;2023-02-15T11:20:05;7.90;99.90
2459;DHT22;1241;50.920;6.936;2023-02-15T11:22:33;8.00;99.90
2459;DHT22;1241;50.920;6.936;2023-02-15T11:25:01;8.20;99.90
2459;DHT22;1241;50.920;6.936;2023-02-15T11:27:31;8.40;99.90
2459;DHT22;1241;50.920;6.936;2023-02-15T11:30:01;8.50;99.90
2459;DHT22;1241;50.920;6.936;2023-02-15T11:32:34;8.60;99.90
2459;DHT22;1241;50.920;6.936;2023-02-15T11:35:03;8.80;99.90
2459;DHT22;1241;50.920;6.936;2023-02-15T11:37:36;9.00;99.90
2459;DHT22;1241;50.920;6.936;2023-02-15T11:40:03;9.10;99.90
2459;DHT22;1241;50.920;6.936;2023-02-15T11:42:40;9.10;99.90
2459;DHT22;1241;50.920;6.936;2023-02-15T11:45:28;9.10;99.90
2459;DHT22;1241;50.920;6.936;2023-02-15T11:47:55;9.10;99.90
2459;DHT22;1241;50.920;6.936;2023-02-15T11:50:31;9.20;99.90
2459;DHT22;1241;50.920;6.936;2023-02-15T11:53:01;9.20;99.90
2459;DHT22;1241;50.920;6.936;2023-02-15T11:55:28;9.30;99.90
2459;DHT22;1241;50.920;6.936;2023-02-15T11:58:04;9.30;99.90
2459;DHT22;1241;50.920;6.936;2023-02-15T12:00:38;9.30;99.90
2459;DHT22;1241;50.920;6.936;2023-02-15T12:03:26;9.40;99.90
2459;DHT22;1241;50.920;6.936;2023-02-15T12:05:58;9.40;99.90
2459;DHT22;1241;50.920;6.936;2023-02-15T12:08:36;9.50;99.90
2459;DHT22;1241;50.920;6.936;2023-02-15T12:11:12;9.50;99.90
2459;DHT22;1241;50.920;6.936;2023-02-15T12:14:08;9.50;99.90
2459;DHT22;1241;50.920;6.936;2023-02-15T12:16:54;9.70;99.90
2459;DHT22;1241;50.920;6.936;2023-02-15T12:19:31;9.80;99.90
2459;DHT22;1241;50.920;6.936;2023-02-15T12:21:58;10.00;99.90
2459;DHT22;1241;50.920;6.936;2023-02-15T12:24:28;10.10;99.90
2459;DHT22;1241;50.920;6.936;2023-02-15T12:27:12;10.30;99.90
2459;DHT22;1241;50.920;6.936;2023-02-15T12:29:43;10.30;99.90
2459;DHT22;1241;50.920;6.936;2023-02-15T12:32:26;10.30;99.90
2459;DHT22;1241;50.920;6.936;2023-02-15T12:35:24;10.40;99.90
2459;DHT22;1241;50.920;6.936;2023-02-15T12:38:02;10.40;99.90
2459;DHT22;1241;50.920;6.936;2023-02-15T12:40:29;10.50;99.90
2459;DHT22;1241;50.920;6.936;2023-02-15T12:42:55;10.50;99.90
2459;DHT22;1241;50.920;6.936;2023-02-15T12:45:23;10.50;99.90
2459;DHT22;1241;50.920;6.936;2023-02-15T12:48:09;10.60;99.90
2459;DHT22;1241;50.920;6.936;2023-02-15T12:50:36;10.70;99.90
2459;DHT22;1241;50.920;6.936;2023-02-15T12:53:17;10.80;99.90
2459;DHT22;1241;50.920;6.936;2023-02-15T12:58:24;10.90;99.90
2459;DHT22;1241;50.920;6.936;2023-02-15T13:03:28;11.00;99.90
2459;DHT22;1241;50.920;6.936;2023-02-15T13:05:55;11.10;99.90
2459;DHT22;1241;50.920;6.936;2023-02-15T13:08:27;11.20;99.90
2459;DHT22;1241;50.920;6.936;2023-02-15T13:11:03;11.20;99.90
2459;DHT22;1241;50.920;6.936;2023-02-15T13:13:35;11.20;99.90
2459;DHT22;1241;50.920;6.936;2023-02-15T13:16:05;11.30;99.90
2459;DHT22;1241;50.920;6.936;2023-02-15T13:18:38;11.40;99.90
2459;DHT22;1241;50.920;6.936;2023-02-15T13:21:11;11.30;99.90
2459;DHT22;1241;50.920;6.936;2023-02-15T13:23:38;11.20;99.90
2459;DHT22;1241;50.920;6.936;2023-02-15T13:26:10;11.20;99.90
2459;DHT22;1241;50.920;6.936;2023-02-15T13:28:45;11.30;99.90
2459;DHT22;1241;50.920;6.936;2023-02-15T13:31:19;11.30;99.90
2459;DHT22;1241;50.920;6.936;2023-02-15T13:39:40;11.40;99.90
2459;DHT22;1241;50.920;6.936;2023-02-15T13:42:25;11.30;99.90
2459;DHT22;1241;50.920;6.936;2023-02-15T13:45:26;11.20;99.90
2459;DHT22;1241;50.920;6.936;2023-02-15T13:48:19;11.30;99.90
2459;DHT22;1241;50.920;6.936;2023-02-15T14:09:43;11.50;99.90
2459;DHT22;1241;50.920;6.936;2023-02-15T14:20:45;11.80;99.90
2459;DHT22;1241;50.920;6.936;2023-02-15T14:25:46;11.90;99.90
2459;DHT22;1241;50.920;6.936;2023-02-15T14:28:34;11.80;99.90
2459;DHT22;1241;50.920;6.936;2023-02-15T14:31:02;11.80;99.90
2459;DHT22;1241;50.920;6.936;2023-02-15T14:33:38;11.70;99.90
2459;DHT22;1241;50.920;6.936;2023-02-15T14:36:11;11.70;99.90
2459;DHT22;1241;50.920;6.936;2023-02-15T14:42:07;11.70;99.90
2459;DHT22;1241;50.920;6.936;2023-02-15T14:44:39;11.70;99.90
2459;DHT22;1241;50.920;6.936;2023-02-15T14:47:16;11.70;99.90
2459;DHT22;1241;50.920;6.936;2023-02-15T14:49:43;11.50;99.90
2459;DHT22;1241;50.920;6.936;2023-02-15T14:52:10;11.60;99.90
2459;DHT22;1241;50.920;6.936;2023-02-15T15:00:01;11.60;99.90
2459;DHT22;1241;50.920;6.936;2023-02-15T15:02:50;11.60;99.90
2459;DHT22;1241;50.920;6.936;2023-02-15T15:07:59;11.60;99.90
2459;DHT22;1241;50.920;6.936;2023-02-15T15:12:56;11.70;99.90
2459;DHT22;1241;50.920;6.936;2023-02-15T15:20:41;11.50;99.90
2459;DHT22;1241;50.920;6.936;2023-02-15T15:25:42;11.60;99.90
2459;DHT22;1241;50.920;6.936;2023-02-15T15:30:56;11.50;99.90
2459;DHT22;1241;50.920;6.936;2023-02-15T15:33:29;11.60;99.90
2459;DHT22;1241;50.920;6.936;2023-02-15T15:39:04;11.40;99.90
2459;DHT22;1241;50.920;6.936;2023-02-15T15:41:52;11.30;99.90
2459;DHT22;1241;50.920;6.936;2023-02-15T15:50:14;11.10;99.90
2459;DHT22;1241;50.920;6.936;2023-02-15T15:52:57;11.10;99.90
2459;DHT22;1241;50.920;6.936;2023-02-15T15:55:26;11.10;99.90
2459;DHT22;1241;50.920;6.936;2023-02-15T15:57:56;11.10;99.90
2459;DHT22;1241;50.920;6.936;2023-02-15T16:03:21;10.90;99.90
2459;DHT22;1241;50.920;6.936;2023-02-15T16:05:47;10.80;99.90
2459;DHT22;1241;50.920;6.936;2023-02-15T16:08:33;10.80;99.90
2459;DHT22;1241;50.920;6.936;2023-02-15T16:11:09;10.80;99.90
2459;DHT22;1241;50.920;6.936;2023-02-15T16:13:35;10.60;99.90
2459;DHT22;1241;50.920;6.936;2023-02-15T16:16:01;10.60;99.90
2459;DHT22;1241;50.920;6.936;2023-02-15T16:18:27;10.50;99.90
2459;DHT22;1241;50.920;6.936;2023-02-15T16:20:57;10.40;99.90
2459;DHT22;1241;50.920;6.936;2023-02-15T16:28:49;10.20;99.90
2459;DHT22;1241;50.920;6.936;2023-02-15T16:31:17;10.10;99.90
2459;DHT22;1241;50.920;6.936;2023-02-15T16:33:44;10.10;99.90
2459;DHT22;1241;50.920;6.936;2023-02-15T16:36:23;10.00;99.90
2459;DHT22;1241;50.920;6.936;2023-02-15T16:41:28;9.90;99.90
2459;DHT22;1241;50.920;6.936;2023-02-15T16:43:57;9.80;99.90
2459;DHT22;1241;50.920;6.936;2023-02-15T16:46:31;9.70;99.90
2459;DHT22;1241;50.920;6.936;2023-02-15T16:49:01;9.70;99.90
2459;DHT22;1241;50.920;6.936;2023-02-15T16:51:29;9.60;99.90
2459;DHT22;1241;50.920;6.936;2023-02-15T16:53:58;9.60;99.90
2459;DHT22;1241;50.920;6.936;2023-02-15T16:56:30;9.50;99.90
2459;DHT22;1241;50.920;6.936;2023-02-15T16:58:57;9.40;99.90
2459;DHT22;1241;50.920;6.936;2023-02-15T17:01:26;9.40;99.90
2459;DHT22;1241;50.920;6.936;2023-02-15T17:06:36;9.20;99.90
2459;DHT22;1241;50.920;6.936;2023-02-15T17:09:06;9.20;99.90
2459;DHT22;1241;50.920;6.936;2023-02-15T17:11:43;9.30;99.90
2459;DHT22;1241;50.920;6.936;2023-02-15T17:19:30;9.20;99.90
2459;DHT22;1241;50.920;6.936;2023-02-15T17:22:04;9.20;99.90
2459;DHT22;1241;50.920;6.936;2023-02-15T17:24:43;9.20;99.90
2459;DHT22;1241;50.920;6.936;2023-02-15T17:27:18;9.20;99.90
2459;DHT22;1241;50.920;6.936;2023-02-15T17:29:47;9.10;99.90
2459;DHT22;1241;50.920;6.936;2023-02-15T17:32:20;9.10;99.90
2459;DHT22;1241;50.920;6.936;2023-02-15T17:37:47;9.00;99.90
2459;DHT22;1241;50.920;6.936;2023-02-15T17:40:18;9.00;99.90
2459;DHT22;1241;50.920;6.936;2023-02-15T17:42:44;9.00;99.90
2459;DHT22;1241;50.920;6.936;2023-02-15T17:45:10;9.00;99.90
2459;DHT22;1241;50.920;6.936;2023-02-15T17:47:36;9.00;99.90
2459;DHT22;1241;50.920;6.936;2023-02-15T17:50:04;9.00;99.90
2459;DHT22;1241;50.920;6.936;2023-02-15T17:52:30;8.90;99.90
2459;DHT22;1241;50.920;6.936;2023-02-15T17:54:56;8.90;99.90
2459;DHT22;1241;50.920;6.936;2023-02-15T17:57:40;8.90;99.90
2459;DHT22;1241;50.920;6.936;2023-02-15T18:00:07;8.90;99.90
2459;DHT22;1241;50.920;6.936;2023-02-15T18:02:51;8.80;99.90
2459;DHT22;1241;50.920;6.936;2023-02-15T18:05:35;8.80;99.90
2459;DHT22;1241;50.920;6.936;2023-02-15T18:08:26;8.70;99.90
2459;DHT22;1241;50.920;6.936;2023-02-15T18:11:10;8.70;99.90
2459;DHT22;1241;50.920;6.936;2023-02-15T18:13:55;8.60;99.90
2459;DHT22;1241;50.920;6.936;2023-02-15T18:16:28;8.60;99.90
2459;DHT22;1241;50.920;6.936;2023-02-15T18:18:55;8.50;99.90
2459;DHT22;1241;50.920;6.936;2023-02-15T18:21:22;8.50;99.90
2459;DHT22;1241;50.920;6.936;2023-02-15T18:23:48;8.50;99.90
2459;DHT22;1241;50.920;6.936;2023-02-15T18:26:24;8.50;99.90
2459;DHT22;1241;50.920;6.936;2023-02-15T18:28:50;8.40;99.90
2459;DHT22;1241;50.920;6.936;2023-02-15T18:31:16;8.40;99.90
2459;DHT22;1241;50.920;6.936;2023-02-15T18:33:48;8.40;99.90
2459;DHT22;1241;50.920;6.936;2023-02-15T18:36:20;8.30;99.90
2459;DHT22;1241;50.920;6.936;2023-02-15T18:38:46;8.40;99.90
2459;DHT22;1241;50.920;6.936;2023-02-15T18:41:17;8.30;99.90
2459;DHT22;1241;50.920;6.936;2023-02-15T18:43:44;8.30;99.90
2459;DHT22;1241;50.920;6.936;2023-02-15T18:46:10;8.30;99.90
2459;DHT22;1241;50.920;6.936;2023-02-15T18:48:36;8.30;99.90
2459;DHT22;1241;50.920;6.936;2023-02-15T18:51:01;8.20;99.90
2459;DHT22;1241;50.920;6.936;2023-02-15T18:53:27;8.20;99.90
2459;DHT22;1241;50.920;6.936;2023-02-15T18:55:53;8.20;99.90
2459;DHT22;1241;50.920;6.936;2023-02-15T18:58:21;8.10;99.90
2459;DHT22;1241;50.920;6.936;2023-02-15T19:00:48;8.10;99.90
2459;DHT22;1241;50.920;6.936;2023-02-15T19:03:15;8.10;99.90
2459;DHT22;1241;50.920;6.936;2023-02-15T19:05:44;8.00;99.90
2459;DHT22;1241;50.920;6.936;2023-02-15T19:08:18;8.00;99.90
2459;DHT22;1241;50.920;6.936;2023-02-15T19:10:46;8.00;99.90
2459;DHT22;1241;50.920;6.936;2023-02-15T19:13:12;8.00;99.90
2459;DHT22;1241;50.920;6.936;2023-02-15T19:15:39;8.00;99.90
2459;DHT22;1241;50.920;6.936;2023-02-15T19:18:05;8.00;99.90
2459;DHT22;1241;50.920;6.936;2023-02-15T19:20:44;8.00;99.90
2459;DHT22;1241;50.920;6.936;2023-02-15T19:23:16;7.90;99.90
2459;DHT22;1241;50.920;6.936;2023-02-15T19:25:43;7.90;99.90